createdAt,value
2023-02-03T00:02:39.286Z,0.85
2023-02-03T00:05:44.247Z,0.84
2023-02-03T00:08:49.336Z,0.84
2023-02-03T00:11:53.931Z,0.83
2023-02-03T00:14:58.525Z,0.83
2023-02-03T00:18:03.078Z,0.84
2023-02-03T00:21:08.116Z,0.85
2023-02-03T00:24:12.675Z,0.85
2023-02-03T00:27:17.334Z,0.85
2023-02-03T00:30:21.975Z,0.87
2023-02-03T00:33:26.605Z,0.87
2023-02-03T00:36:31.235Z,0.86
2023-02-03T00:39:37.360Z,0.84
2023-02-03T00:42:42.003Z,0.83
2023-02-03T00:45:46.680Z,0.85
2023-02-03T00:48:51.285Z,0.87
2023-02-03T00:51:55.990Z,0.84
2023-02-03T00:55:00.615Z,0.83
2023-02-03T00:58:05.348Z,0.81
2023-02-03T01:01:10.085Z,0.79
2023-02-03T01:04:14.626Z,0.76
2023-02-03T01:07:19.156Z,0.73
2023-02-03T01:10:23.883Z,0.71
2023-02-03T01:13:29.165Z,0.72
2023-02-03T01:16:36.456Z,0.72
2023-02-03T01:19:41.060Z,0.71
2023-02-03T01:22:45.663Z,0.70
2023-02-03T01:25:50.276Z,0.70
2023-02-03T01:28:55.894Z,0.70
2023-02-03T01:32:00.662Z,0.71
2023-02-03T01:35:05.387Z,0.71
2023-02-03T01:38:10.018Z,0.69
2023-02-03T01:41:15.929Z,0.68
2023-02-03T01:44:37.806Z,0.69
2023-02-03T01:47:45.225Z,0.72
2023-02-03T01:50:49.865Z,0.73
2023-02-03T01:53:55.484Z,0.72
2023-02-03T01:57:01.705Z,0.69
2023-02-03T02:00:09.718Z,0.66
2023-02-03T02:03:14.729Z,0.63
2023-02-03T02:06:19.234Z,0.64
2023-02-03T02:09:24.283Z,0.65
2023-02-03T02:12:29.025Z,0.71
2023-02-03T02:15:36.895Z,0.73
2023-02-03T02:18:49.114Z,0.69
2023-02-03T02:21:56.521Z,0.62
2023-02-03T02:25:26.749Z,0.61
2023-02-03T02:28:47.722Z,0.60
2023-02-03T02:32:06.545Z,0.57
2023-02-03T02:35:15.836Z,0.55
2023-02-03T02:38:25.397Z,0.55
2023-02-03T02:41:31.332Z,0.55
2023-02-03T02:44:37.929Z,0.55
2023-02-03T02:47:42.622Z,0.56
2023-02-03T02:50:48.187Z,0.57
2023-02-03T02:53:54.600Z,0.56
2023-02-03T02:57:00.948Z,0.54
2023-02-03T03:00:05.884Z,0.53
2023-02-03T03:03:14.857Z,0.49
2023-02-03T03:06:21.185Z,0.45
2023-02-03T03:09:26.733Z,0.46
2023-02-03T03:12:32.581Z,0.46
2023-02-03T03:15:38.078Z,0.47
2023-02-03T03:18:45.325Z,0.45
2023-02-03T03:21:53.685Z,0.43
2023-02-03T03:25:01.644Z,0.44
2023-02-03T03:28:09.703Z,0.45
2023-02-03T03:31:14.471Z,0.45
2023-02-03T03:34:19.489Z,0.47
2023-02-03T03:37:31.080Z,0.49
2023-02-03T03:40:39.633Z,0.46
2023-02-03T03:43:46.376Z,0.46
2023-02-03T03:46:53.453Z,0.44
2023-02-03T03:50:00.458Z,0.39
2023-02-03T03:53:06.702Z,0.31
2023-02-03T03:56:14.221Z,0.29
2023-02-03T03:59:20.222Z,0.27
2023-02-03T04:02:25.624Z,0.24
2023-02-03T04:05:30.145Z,0.20
2023-02-03T04:08:34.816Z,0.17
2023-02-03T04:11:57.106Z,0.13
2023-02-03T04:15:01.731Z,0.13
2023-02-03T04:18:06.819Z,0.13
2023-02-03T04:21:11.498Z,0.11
2023-02-03T04:24:16.059Z,0.05
2023-02-03T04:27:20.565Z,0.03
2023-02-03T04:30:25.354Z,-0.02
2023-02-03T04:33:30.123Z,-0.04
2023-02-03T04:36:34.739Z,-0.06
2023-02-03T04:39:39.403Z,-0.12
2023-02-03T04:42:43.924Z,-0.14
2023-02-03T04:45:48.565Z,-0.17
2023-02-03T04:48:53.252Z,-0.18
2023-02-03T04:51:57.816Z,-0.19
2023-02-03T04:55:04.216Z,-0.18
2023-02-03T04:58:08.797Z,-0.21
2023-02-03T05:01:13.487Z,-0.22
2023-02-03T05:04:18.344Z,-0.24
2023-02-03T05:07:22.899Z,-0.25
2023-02-03T05:10:27.600Z,-0.25
2023-02-03T05:13:32.317Z,-0.22
2023-02-03T05:16:36.924Z,-0.20
2023-02-03T05:19:41.500Z,-0.22
2023-02-03T05:22:46.037Z,-0.21
2023-02-03T05:25:50.552Z,-0.23
2023-02-03T05:28:56.672Z,-0.23
2023-02-03T05:32:02.393Z,-0.23
2023-02-03T05:35:08.913Z,-0.28
2023-02-03T05:38:13.672Z,-0.33
2023-02-03T05:41:35.573Z,-0.36
2023-02-03T05:44:40.109Z,-0.40
2023-02-03T05:47:44.726Z,-0.40
2023-02-03T05:50:49.354Z,-0.41
2023-02-03T05:53:54.418Z,-0.41
2023-02-03T05:56:58.948Z,-0.45
2023-02-03T06:00:03.764Z,-0.49
2023-02-03T06:03:08.639Z,-0.54
2023-02-03T06:06:13.312Z,-0.56
2023-02-03T06:09:17.861Z,-0.59
2023-02-03T06:12:22.393Z,-0.63
2023-02-03T06:15:26.994Z,-0.66
2023-02-03T06:18:31.734Z,-0.67
2023-02-03T06:21:36.283Z,-0.69
2023-02-03T06:24:40.797Z,-0.69
2023-02-03T06:27:45.377Z,-0.69
2023-02-03T06:30:53.311Z,-0.67
2023-02-03T06:33:59.647Z,-0.64
2023-02-03T06:37:04.242Z,-0.61
2023-02-03T06:40:09.828Z,-0.57
2023-02-03T06:43:14.400Z,-0.53
2023-02-03T06:46:18.938Z,-0.49
2023-02-03T06:49:23.469Z,-0.45
2023-02-03T06:52:27.959Z,-0.41
2023-02-03T06:55:32.527Z,-0.37
2023-02-03T06:58:37.105Z,-0.34
2023-02-03T07:01:41.729Z,-0.31
2023-02-03T07:04:46.391Z,-0.28
2023-02-03T07:07:50.899Z,-0.22
2023-02-03T07:10:56.688Z,-0.17
2023-02-03T07:14:01.304Z,-0.16
2023-02-03T07:17:05.825Z,-0.10
2023-02-03T07:20:11.181Z,-0.07
2023-02-03T07:23:15.676Z,-0.04
2023-02-03T07:26:23.046Z,-0.03
2023-02-03T07:29:27.593Z,0.01
2023-02-03T07:32:32.937Z,0.03
2023-02-03T07:35:38.380Z,0.05
2023-02-03T07:38:42.999Z,0.09
2023-02-03T07:41:47.739Z,0.13
2023-02-03T07:44:52.269Z,0.14
2023-02-03T07:47:56.803Z,0.11
2023-02-03T07:51:01.420Z,0.09
2023-02-03T07:54:06.273Z,0.09
2023-02-03T07:57:10.770Z,0.10
2023-02-03T08:00:17.709Z,0.13
2023-02-03T08:03:22.276Z,0.18
2023-02-03T08:06:26.917Z,0.21
2023-02-03T08:09:31.452Z,0.25
2023-02-03T08:12:35.966Z,0.30
2023-02-03T08:15:40.736Z,0.36
2023-02-03T08:18:45.343Z,0.41
2023-02-03T08:21:49.844Z,0.43
2023-02-03T08:24:54.391Z,0.45
2023-02-03T08:27:59.013Z,0.48
2023-02-03T08:31:03.560Z,0.50
2023-02-03T08:34:08.169Z,0.49
2023-02-03T08:37:13.588Z,0.50
2023-02-03T08:40:18.526Z,0.51
2023-02-03T08:43:23.087Z,0.53
2023-02-03T08:46:27.606Z,0.54
2023-02-03T08:49:32.099Z,0.55
2023-02-03T08:52:36.832Z,0.56
2023-02-03T08:55:41.547Z,0.58
2023-02-03T08:58:46.044Z,0.61
2023-02-03T09:01:50.592Z,0.64
2023-02-03T09:04:55.199Z,0.65
2023-02-03T09:08:00.384Z,0.65
2023-02-03T09:11:09.243Z,0.69
2023-02-03T09:14:13.846Z,0.72
2023-02-03T09:17:18.750Z,0.73
2023-02-03T09:20:24.579Z,0.74
2023-02-03T09:23:29.147Z,0.78
2023-02-03T09:26:33.457Z,0.85
2023-02-03T09:29:37.923Z,0.92
2023-02-03T09:32:42.242Z,1.00
2023-02-03T09:35:54.155Z,1.08
2023-02-03T09:38:59.385Z,1.15
2023-02-03T09:42:10.922Z,1.20
2023-02-03T09:45:21.561Z,1.25
2023-02-03T09:48:27.491Z,1.31
2023-02-03T09:51:36.203Z,1.36
2023-02-03T09:54:43.855Z,1.45
2023-02-03T09:57:51.593Z,1.52
2023-02-03T10:00:57.648Z,1.56
2023-02-03T10:04:05.719Z,1.62
2023-02-03T10:07:13.268Z,1.66
2023-02-03T10:10:19.763Z,1.71
2023-02-03T10:13:30.827Z,1.75
2023-02-03T10:16:43.379Z,1.76
2023-02-03T10:19:49.308Z,1.78
2023-02-03T10:22:55.469Z,1.79
2023-02-03T10:26:00.938Z,1.85
2023-02-03T10:29:09.217Z,1.92
2023-02-03T10:32:14.227Z,1.99
2023-02-03T10:35:18.765Z,2.08
2023-02-03T10:38:30.509Z,2.16
2023-02-03T10:41:35.312Z,2.17
2023-02-03T10:44:40.778Z,2.17
2023-02-03T10:47:47.312Z,2.16
2023-02-03T10:50:52.863Z,2.11
2023-02-03T10:53:57.429Z,2.05
2023-02-03T10:57:06.124Z,2.04
2023-02-03T11:00:22.764Z,2.00
2023-02-03T11:03:28.158Z,1.93
2023-02-03T11:06:33.152Z,1.88
2023-02-03T11:09:38.814Z,1.85
2023-02-03T11:12:43.404Z,1.84
2023-02-03T11:15:52.784Z,1.80
2023-02-03T11:18:59.215Z,1.78
2023-02-03T11:22:03.857Z,1.81
2023-02-03T11:25:18.689Z,1.82
2023-02-03T11:28:23.407Z,1.82
2023-02-03T11:31:28.945Z,1.80
2023-02-03T11:34:35.671Z,1.79
2023-02-03T11:37:41.492Z,1.78
2023-02-03T11:40:46.029Z,1.78
2023-02-03T11:43:50.650Z,1.71
2023-02-03T11:46:56.813Z,1.65
2023-02-03T11:50:17.480Z,1.60
2023-02-03T11:53:28.514Z,1.52
2023-02-03T11:56:40.041Z,1.45
2023-02-03T11:59:53.265Z,1.44
2023-02-03T12:03:27.894Z,1.47
2023-02-03T12:06:47.529Z,1.48
2023-02-03T12:09:55.784Z,1.48
2023-02-03T12:13:03.454Z,1.50
2023-02-03T12:16:15.610Z,1.49
2023-02-03T12:19:25.727Z,1.48
2023-02-03T12:22:34.924Z,1.47
2023-02-03T12:25:46.110Z,1.44
2023-02-03T12:28:57.323Z,1.43
2023-02-03T12:32:04.602Z,1.42
2023-02-03T12:35:14.882Z,1.42
2023-02-03T12:38:23.093Z,1.38
2023-02-03T12:41:29.779Z,1.34
2023-02-03T12:44:36.964Z,1.26
2023-02-03T12:47:43.611Z,1.21
2023-02-03T12:50:52.163Z,1.16
2023-02-03T12:54:00.343Z,1.10
2023-02-03T12:57:12.094Z,1.07
2023-02-03T13:00:27.887Z,1.02
2023-02-03T13:03:37.091Z,0.97
2023-02-03T13:06:44.147Z,0.92
2023-02-03T13:09:50.279Z,0.85
2023-02-03T13:12:57.484Z,0.80
2023-02-03T13:16:03.762Z,0.76
2023-02-03T13:19:12.467Z,0.72
2023-02-03T13:22:17.823Z,0.70
2023-02-03T13:25:25.423Z,0.67
2023-02-03T13:28:38.032Z,0.66
2023-02-03T13:31:50.380Z,0.69
2023-02-03T13:35:03.807Z,0.72
2023-02-03T13:38:24.671Z,0.72
2023-02-03T13:41:33.394Z,0.68
2023-02-03T13:44:39.277Z,0.66
2023-02-03T13:47:47.397Z,0.65
2023-02-03T13:50:52.412Z,0.65
2023-02-03T13:54:00.954Z,0.66
2023-02-03T13:57:07.156Z,0.69
2023-02-03T14:00:35.061Z,0.68
2023-02-03T14:03:46.293Z,0.66
2023-02-03T14:07:03.428Z,0.66
2023-02-03T14:10:22.050Z,0.67
2023-02-03T14:13:26.569Z,0.68
2023-02-03T14:16:35.543Z,0.68
2023-02-03T14:19:58.610Z,0.67
2023-02-03T14:23:10.341Z,0.70
2023-02-03T14:26:23.665Z,0.70
2023-02-03T14:29:29.570Z,0.68
2023-02-03T14:32:47.459Z,0.66
2023-02-03T14:35:52.055Z,0.66
2023-02-03T14:38:57.347Z,0.66
2023-02-03T14:42:06.554Z,0.64
2023-02-03T14:45:18.032Z,0.62
2023-02-03T14:48:33.123Z,0.61
2023-02-03T14:51:52.793Z,0.61
2023-02-03T14:55:06.108Z,0.62
2023-02-03T14:58:24.917Z,0.64
2023-02-03T15:01:49.819Z,0.65
2023-02-03T15:04:54.892Z,0.62
2023-02-03T15:08:01.416Z,0.61
2023-02-03T15:11:22.831Z,0.60
2023-02-03T15:14:28.493Z,0.59
2023-02-03T15:17:33.106Z,0.60
2023-02-03T15:20:41.544Z,0.62
2023-02-03T15:23:48.357Z,0.62
2023-02-03T15:26:53.604Z,0.59
2023-02-03T15:29:59.108Z,0.59
2023-02-03T15:33:07.624Z,0.59
2023-02-03T15:36:16.929Z,0.63
2023-02-03T15:39:25.376Z,0.68
2023-02-03T15:42:32.347Z,0.70
2023-02-03T15:45:41.894Z,0.72
2023-02-03T15:48:48.775Z,0.77
2023-02-03T15:51:55.636Z,0.80
2023-02-03T15:55:05.356Z,0.83
2023-02-03T15:58:16.172Z,0.86
2023-02-03T16:01:23.304Z,0.89
2023-02-03T16:04:27.895Z,0.91
2023-02-03T16:07:32.624Z,0.94
2023-02-03T16:10:37.109Z,1.00
2023-02-03T16:13:45.630Z,1.06
2023-02-03T16:17:04.278Z,1.10
2023-02-03T16:20:28.562Z,1.12
2023-02-03T16:23:33.367Z,1.15
2023-02-03T16:26:38.679Z,1.19
2023-02-03T16:30:00.717Z,1.23
2023-02-03T16:33:29.107Z,1.27
2023-02-03T16:36:51.135Z,1.31
2023-02-03T16:40:13.078Z,1.38
2023-02-03T16:43:35.514Z,1.47
2023-02-03T16:46:57.449Z,1.57
2023-02-03T16:50:32.745Z,1.65
2023-02-03T16:53:41.606Z,1.73
2023-02-03T16:56:46.140Z,1.80
2023-02-03T16:59:50.683Z,1.86
2023-02-03T17:02:56.546Z,1.91
2023-02-03T17:06:05.161Z,1.96
2023-02-03T17:09:09.663Z,2.01
2023-02-03T17:12:14.202Z,2.06
2023-02-03T17:15:18.857Z,2.10
2023-02-03T17:18:23.386Z,2.14
2023-02-03T17:21:28.935Z,2.16
2023-02-03T17:24:33.399Z,2.18
2023-02-03T17:27:38.088Z,2.21
2023-02-03T17:30:42.750Z,2.25
2023-02-03T17:33:47.784Z,2.26
2023-02-03T17:36:52.396Z,2.28
2023-02-03T17:53:27.801Z,2.46
2023-02-03T17:56:32.457Z,2.48
2023-02-03T17:59:37.871Z,2.49
2023-02-03T18:02:43.287Z,2.50
2023-02-03T18:05:52.491Z,2.52
2023-02-03T18:09:01.340Z,2.54
2023-02-03T18:12:06.274Z,2.54
2023-02-03T18:15:11.301Z,2.55
2023-02-03T18:18:15.853Z,2.57
2023-02-03T18:21:21.468Z,2.59
2023-02-03T18:24:28.786Z,2.59
2023-02-03T18:27:33.279Z,2.59
2023-02-03T18:30:37.952Z,2.60
2023-02-03T18:33:43.035Z,2.62
2023-02-03T18:36:47.680Z,2.62
2023-02-03T18:39:52.429Z,2.61
2023-02-03T18:42:57.424Z,2.61
2023-02-03T18:46:06.609Z,2.61
2023-02-03T18:49:12.403Z,2.61
2023-02-03T18:52:16.896Z,2.61
2023-02-03T18:55:21.788Z,2.61
2023-02-03T18:58:26.354Z,2.60
2023-02-03T19:01:32.017Z,2.60
2023-02-03T19:04:36.622Z,2.59
2023-02-03T19:07:41.329Z,2.57
2023-02-03T19:10:45.911Z,2.57
2023-02-03T19:13:50.736Z,2.58
2023-02-03T19:16:55.238Z,2.58
2023-02-03T19:19:59.758Z,2.58
2023-02-03T19:23:08.604Z,2.59
2023-02-03T19:26:13.370Z,2.61
2023-02-03T19:29:17.957Z,2.63
2023-02-03T19:32:22.633Z,2.64
2023-02-03T19:35:27.206Z,2.64
2023-02-03T19:38:31.724Z,2.64
2023-02-03T19:41:36.913Z,2.62
2023-02-03T19:44:41.397Z,2.61
2023-02-03T19:47:45.839Z,2.61
2023-02-03T19:50:50.543Z,2.61
2023-02-03T19:53:55.060Z,2.60
2023-02-03T19:56:59.714Z,2.60
2023-02-03T20:00:04.352Z,2.59
2023-02-03T20:03:08.927Z,2.59
2023-02-03T20:06:13.804Z,2.60
2023-02-03T20:09:18.437Z,2.59
2023-02-03T20:12:23.012Z,2.58
2023-02-03T20:15:27.611Z,2.59
2023-02-03T20:18:32.176Z,2.58
2023-02-03T20:21:36.737Z,2.59
2023-02-03T20:24:41.437Z,2.58
2023-02-03T20:27:46.047Z,2.58
2023-02-03T20:30:53.209Z,2.57
2023-02-03T20:33:57.810Z,2.56
2023-02-03T20:37:02.294Z,2.56
2023-02-03T20:40:07.988Z,2.55
2023-02-03T20:43:16.811Z,2.54
2023-02-03T20:46:21.321Z,2.55
2023-02-03T20:49:26.117Z,2.55
2023-02-03T20:52:30.730Z,2.55
2023-02-03T20:55:36.727Z,2.54
2023-02-03T20:58:41.708Z,2.54
2023-02-03T21:01:46.476Z,2.54
2023-02-03T21:05:00.786Z,2.54
2023-02-03T21:08:10.962Z,2.55
2023-02-03T21:11:16.615Z,2.55
2023-02-03T21:14:22.853Z,2.57
2023-02-03T21:17:28.398Z,2.57
2023-02-03T21:20:33.352Z,2.56
2023-02-03T21:23:40.215Z,2.56
2023-02-03T21:26:44.750Z,2.54
2023-02-03T21:29:49.275Z,2.54
2023-02-03T21:32:53.785Z,2.55
2023-02-03T21:35:58.337Z,2.54
2023-02-03T21:39:03.252Z,2.53
2023-02-03T21:42:41.371Z,2.53
2023-02-03T21:45:46.465Z,2.51
2023-02-03T21:48:52.324Z,2.48
2023-02-03T21:51:56.803Z,2.49
2023-02-03T21:55:01.419Z,2.52
2023-02-03T21:58:20.182Z,2.52
2023-02-03T22:01:26.229Z,2.51
2023-02-03T22:04:31.081Z,2.51
2023-02-03T22:07:35.925Z,2.51
2023-02-03T22:10:40.459Z,2.48
2023-02-03T22:13:44.929Z,2.46
2023-02-03T22:16:49.576Z,2.44
2023-02-03T22:19:54.125Z,2.46
2023-02-03T22:22:58.627Z,2.46
2023-02-03T22:26:03.255Z,2.47
2023-02-03T22:29:07.757Z,2.48
2023-02-03T22:32:12.329Z,2.47
2023-02-03T22:35:16.801Z,2.48
2023-02-03T22:38:21.701Z,2.50
2023-02-03T22:41:26.294Z,2.50
2023-02-03T22:44:30.826Z,2.51
2023-02-03T22:47:35.328Z,2.51
2023-02-03T22:50:40.130Z,2.51
2023-02-03T22:53:44.764Z,2.52
2023-02-03T22:56:49.242Z,2.53
2023-02-03T22:59:53.760Z,2.52
2023-02-03T23:02:59.144Z,2.51
2023-02-03T23:06:03.759Z,2.53
2023-02-03T23:09:08.346Z,2.53
2023-02-03T23:12:12.855Z,2.52
2023-02-03T23:15:18.173Z,2.53
2023-02-03T23:18:22.757Z,2.53
2023-02-03T23:21:27.234Z,2.53
2023-02-03T23:24:31.688Z,2.50
2023-02-03T23:27:36.208Z,2.47
2023-02-03T23:30:40.776Z,2.46
2023-02-03T23:34:05.464Z,2.44
2023-02-03T23:37:09.980Z,2.44
2023-02-03T23:40:14.786Z,2.45
2023-02-03T23:43:19.357Z,2.43
2023-02-03T23:46:23.868Z,2.41
2023-02-03T23:49:28.448Z,2.40
2023-02-03T23:52:35.826Z,2.39
2023-02-03T23:55:40.316Z,2.39
2023-02-03T23:58:44.911Z,2.41
